Aviation Digital Data Service (ADDS)

Output produced by METARs form (1341 UTC 03 December 2016)
found at http://aviationweather.gov/adds/metars/
 
KLAN 031143Z 0312/0412 27008KT P6SM OVC025 
     FM031800 26007KT P6SM OVC025 
     FM040900 VRB03KT P6SM BKN030